createdAt,value
2023-05-06T00:01:59.762Z,9.65
2023-05-06T00:04:26.951Z,9.65
2023-05-06T00:06:54.228Z,9.65
2023-05-06T00:09:21.310Z,9.67
2023-05-06T00:11:47.973Z,9.67
2023-05-06T00:14:14.551Z,9.60
2023-05-06T00:16:41.280Z,9.59
2023-05-06T00:19:08.043Z,9.62
2023-05-06T00:21:34.653Z,9.61
2023-05-06T00:24:01.367Z,9.63
2023-05-06T00:26:27.932Z,9.63
2023-05-06T00:28:54.460Z,9.68
2023-05-06T00:31:21.086Z,9.71
2023-05-06T00:33:47.635Z,9.71
2023-05-06T00:36:14.646Z,9.72
2023-05-06T00:38:41.218Z,9.73
2023-05-06T00:41:08.230Z,9.69
2023-05-06T00:43:34.777Z,9.63
2023-05-06T00:46:01.753Z,9.63
2023-05-06T00:48:28.780Z,9.65
2023-05-06T00:50:55.735Z,9.63
2023-05-06T00:53:22.443Z,9.66
2023-05-06T00:55:51.280Z,9.68
2023-05-06T00:58:20.162Z,9.65
2023-05-06T01:00:47.019Z,9.64
2023-05-06T01:03:13.769Z,9.65
2023-05-06T01:05:50.431Z,9.66
2023-05-06T01:08:21.302Z,9.65
2023-05-06T01:11:01.110Z,9.61
2023-05-06T01:13:41.206Z,9.57
2023-05-06T01:16:10.291Z,9.48
2023-05-06T01:18:38.563Z,9.47
2023-05-06T01:21:06.982Z,9.50
2023-05-06T01:23:52.121Z,9.50
2023-05-06T01:26:18.748Z,9.43
2023-05-06T01:28:45.349Z,9.46
2023-05-06T01:31:15.086Z,9.43
2023-05-06T01:34:11.106Z,9.38
2023-05-06T01:37:02.518Z,9.33
2023-05-06T01:39:32.074Z,9.30
2023-05-06T01:42:02.024Z,9.31
2023-05-06T01:44:33.373Z,9.23
2023-05-06T01:47:01.228Z,9.22
2023-05-06T01:49:28.759Z,9.19
2023-05-06T01:51:55.614Z,9.16
2023-05-06T01:54:22.256Z,9.12
2023-05-06T01:56:48.780Z,9.09
2023-05-06T01:59:15.374Z,9.08
2023-05-06T02:01:41.970Z,9.07
2023-05-06T02:04:08.632Z,9.01
2023-05-06T02:06:35.359Z,9.03
2023-05-06T02:09:01.991Z,8.99
2023-05-06T02:11:28.799Z,8.94
2023-05-06T02:13:55.494Z,8.94
2023-05-06T02:16:22.191Z,8.90
2023-05-06T02:18:48.832Z,8.88
2023-05-06T02:21:15.430Z,8.92
2023-05-06T02:23:41.992Z,8.91
2023-05-06T02:26:08.528Z,8.91
2023-05-06T02:28:35.058Z,8.87
2023-05-06T02:31:01.562Z,8.88
2023-05-06T02:33:28.169Z,8.94
2023-05-06T02:35:54.747Z,8.94
2023-05-06T02:38:21.855Z,8.90
2023-05-06T02:40:48.671Z,8.89
2023-05-06T02:43:15.242Z,8.93
2023-05-06T02:45:41.863Z,8.96
2023-05-06T02:48:08.418Z,8.99
2023-05-06T02:50:35.942Z,8.93
2023-05-06T02:53:02.475Z,8.98
2023-05-06T02:55:28.998Z,8.94
2023-05-06T02:57:55.621Z,8.93
2023-05-06T03:00:22.270Z,8.92
2023-05-06T03:02:48.949Z,8.90
2023-05-06T03:05:15.617Z,8.84
2023-05-06T03:07:42.203Z,8.84
2023-05-06T03:10:09.213Z,8.83
2023-05-06T03:12:35.852Z,8.84
2023-05-06T03:15:02.434Z,8.86
2023-05-06T03:17:29.066Z,8.83
2023-05-06T03:19:55.714Z,8.82
2023-05-06T03:22:22.271Z,8.80
2023-05-06T03:24:48.783Z,8.80
2023-05-06T03:27:15.336Z,8.82
2023-05-06T03:29:41.893Z,8.78
2023-05-06T03:32:08.498Z,8.81
2023-05-06T03:34:35.063Z,8.83
2023-05-06T03:37:01.736Z,8.79
2023-05-06T03:39:28.392Z,8.79
2023-05-06T03:41:54.971Z,8.75
2023-05-06T03:44:21.535Z,8.73
2023-05-06T03:46:48.095Z,8.73
2023-05-06T03:49:14.629Z,8.73
2023-05-06T03:51:41.266Z,8.72
2023-05-06T03:54:07.872Z,8.75
2023-05-06T03:56:34.522Z,8.77
2023-05-06T03:59:01.180Z,8.71
2023-05-06T04:01:27.707Z,8.73
2023-05-06T04:03:54.757Z,8.71
2023-05-06T04:06:21.448Z,8.70
2023-05-06T04:08:47.981Z,8.70
2023-05-06T04:11:14.653Z,8.69
2023-05-06T04:13:41.211Z,8.65
2023-05-06T04:16:08.032Z,8.64
2023-05-06T04:18:34.618Z,8.63
2023-05-06T04:21:01.286Z,8.61
2023-05-06T04:23:27.878Z,8.64
2023-05-06T04:25:54.701Z,8.60
2023-05-06T04:28:21.833Z,8.65
2023-05-06T04:30:48.353Z,8.64
2023-05-06T04:33:15.036Z,8.68
2023-05-06T04:35:53.162Z,8.69
2023-05-06T04:38:21.796Z,8.70
2023-05-06T04:40:49.626Z,8.73
2023-05-06T04:43:16.508Z,8.77
2023-05-06T04:45:49.188Z,8.85
2023-05-06T04:48:19.317Z,8.91
2023-05-06T04:50:46.883Z,8.93
2023-05-06T04:53:14.407Z,8.97
2023-05-06T04:55:41.037Z,9.00
2023-05-06T04:58:07.906Z,9.05
2023-05-06T05:00:35.119Z,9.19
2023-05-06T05:03:02.194Z,9.23
2023-05-06T05:05:29.237Z,9.39
2023-05-06T05:07:56.101Z,9.54
2023-05-06T05:10:22.663Z,9.65
2023-05-06T05:12:49.267Z,9.78
2023-05-06T05:15:15.866Z,9.90
2023-05-06T05:17:42.410Z,10.07
2023-05-06T05:20:09.383Z,10.35
2023-05-06T05:22:36.579Z,10.65
2023-05-06T05:25:05.089Z,10.87
2023-05-06T05:27:32.874Z,11.11
2023-05-06T05:30:00.407Z,11.45
2023-05-06T05:32:27.119Z,11.60
2023-05-06T05:34:53.701Z,11.80
2023-05-06T05:37:20.861Z,12.10
2023-05-06T05:39:47.412Z,12.49
2023-05-06T05:42:13.991Z,12.80
2023-05-06T05:44:40.549Z,13.13
2023-05-06T05:47:07.370Z,13.44
2023-05-06T05:49:33.997Z,13.13
2023-05-06T05:52:00.641Z,12.80
2023-05-06T05:54:27.177Z,12.65
2023-05-06T05:56:53.748Z,12.71
2023-05-06T05:59:20.375Z,12.73
2023-05-06T06:01:46.912Z,12.66
2023-05-06T06:04:13.507Z,12.55
2023-05-06T06:06:40.275Z,12.45
2023-05-06T06:09:07.277Z,12.35
2023-05-06T06:11:33.860Z,12.35
2023-05-06T06:14:00.413Z,12.28
2023-05-06T06:16:27.187Z,12.25
2023-05-06T06:18:54.110Z,12.34
2023-05-06T06:21:20.675Z,12.32
2023-05-06T06:23:47.274Z,12.32
2023-05-06T06:26:13.902Z,12.38
2023-05-06T06:28:40.732Z,12.38
2023-05-06T06:31:07.549Z,12.36
2023-05-06T06:33:34.097Z,12.33
2023-05-06T06:36:00.862Z,12.33
2023-05-06T06:38:27.460Z,12.38
2023-05-06T06:40:54.182Z,12.40
2023-05-06T06:43:20.901Z,12.48
2023-05-06T06:45:48.138Z,12.59
2023-05-06T06:48:15.108Z,12.61
2023-05-06T06:50:41.635Z,12.79
2023-05-06T06:53:08.213Z,12.92
2023-05-06T06:55:34.956Z,13.13
2023-05-06T06:58:01.759Z,13.36
2023-05-06T07:00:28.307Z,13.90
2023-05-06T07:02:55.394Z,14.28
2023-05-06T07:05:22.079Z,14.57
2023-05-06T07:07:48.615Z,14.66
2023-05-06T07:10:15.211Z,15.04
2023-05-06T07:12:41.777Z,15.18
2023-05-06T07:15:09.227Z,15.42
2023-05-06T07:17:36.054Z,15.57
2023-05-06T07:20:02.659Z,15.55
2023-05-06T07:22:29.297Z,15.83
2023-05-06T07:24:56.016Z,15.84
2023-05-06T07:27:24.101Z,15.86
2023-05-06T07:29:50.932Z,15.85
2023-05-06T07:32:17.657Z,15.94
2023-05-06T07:34:44.248Z,15.89
2023-05-06T07:37:10.928Z,15.90
2023-05-06T07:39:37.482Z,15.91
2023-05-06T07:42:04.084Z,16.40
2023-05-06T07:44:30.608Z,16.57
2023-05-06T07:46:57.311Z,16.24
2023-05-06T07:49:25.403Z,16.01
2023-05-06T07:51:51.933Z,15.85
2023-05-06T07:54:18.427Z,16.01
2023-05-06T07:56:45.533Z,16.52
2023-05-06T07:59:12.131Z,16.67
2023-05-06T08:01:38.693Z,16.71
2023-05-06T08:04:05.955Z,16.77
2023-05-06T08:06:33.108Z,16.87
2023-05-06T08:09:00.839Z,16.72
2023-05-06T08:11:27.416Z,16.71
2023-05-06T08:13:54.031Z,16.65
2023-05-06T08:16:21.656Z,17.25
2023-05-06T08:18:49.084Z,17.05
2023-05-06T08:21:15.850Z,17.28
2023-05-06T08:23:42.381Z,17.54
2023-05-06T08:26:08.929Z,17.59
2023-05-06T08:28:35.975Z,17.80
2023-05-06T08:31:02.476Z,18.06
2023-05-06T08:33:30.930Z,18.23
2023-05-06T08:35:58.993Z,18.50
2023-05-06T08:38:27.187Z,18.32
2023-05-06T08:40:54.621Z,18.51
2023-05-06T08:43:23.118Z,18.46
2023-05-06T08:45:50.581Z,18.43
2023-05-06T08:48:17.619Z,18.10
2023-05-06T08:50:44.468Z,18.46
2023-05-06T08:53:13.505Z,18.38
2023-05-06T08:55:42.116Z,18.44
2023-05-06T08:58:10.860Z,18.27
2023-05-06T09:00:37.887Z,18.70
2023-05-06T09:03:04.618Z,19.04
2023-05-06T09:05:31.303Z,19.06
2023-05-06T09:07:57.853Z,19.11
2023-05-06T09:10:24.662Z,19.14
2023-05-06T09:12:53.977Z,18.95
2023-05-06T09:15:24.686Z,18.94
2023-05-06T09:17:51.364Z,18.74
2023-05-06T09:20:18.059Z,18.92
2023-05-06T09:22:44.775Z,19.22
2023-05-06T09:25:12.195Z,19.50
2023-05-06T09:27:39.619Z,19.57
2023-05-06T09:30:14.488Z,19.84
2023-05-06T09:32:42.031Z,19.85
2023-05-06T09:35:10.764Z,19.89
2023-05-06T09:37:37.528Z,19.87
2023-05-06T09:40:04.527Z,19.84
2023-05-06T09:42:31.594Z,19.13
2023-05-06T09:45:01.948Z,18.66
2023-05-06T09:47:34.397Z,19.22
2023-05-06T09:50:02.199Z,19.68
2023-05-06T09:52:29.711Z,19.92
2023-05-06T09:54:57.368Z,19.96
2023-05-06T09:57:24.284Z,20.27
2023-05-06T09:59:52.309Z,20.13
2023-05-06T10:02:20.215Z,20.14
2023-05-06T10:04:49.492Z,20.10
2023-05-06T10:07:22.712Z,20.17
2023-05-06T10:09:51.489Z,20.17
2023-05-06T10:12:19.897Z,20.09
2023-05-06T10:14:46.572Z,20.14
2023-05-06T10:17:13.811Z,20.41
2023-05-06T10:19:44.107Z,20.28
2023-05-06T10:22:23.904Z,20.55
2023-05-06T10:25:19.397Z,20.43
2023-05-06T10:27:49.012Z,20.65
2023-05-06T10:30:19.041Z,20.69
2023-05-06T10:32:46.457Z,20.56
2023-05-06T10:35:20.635Z,20.68
2023-05-06T10:37:50.704Z,20.90
2023-05-06T10:40:17.508Z,20.52
2023-05-06T10:42:44.035Z,20.41
2023-05-06T10:45:11.286Z,20.37
2023-05-06T10:47:56.541Z,20.08
2023-05-06T10:50:27.148Z,19.87
2023-05-06T10:52:56.204Z,19.46
2023-05-06T10:55:37.658Z,19.41
2023-05-06T10:58:15.148Z,19.54
2023-05-06T11:00:42.295Z,19.33
2023-05-06T11:03:13.057Z,19.48
2023-05-06T11:05:50.589Z,19.44
2023-05-06T11:08:26.656Z,19.25
2023-05-06T11:10:54.069Z,19.26
2023-05-06T11:13:27.929Z,19.08
2023-05-06T11:15:55.982Z,19.15
2023-05-06T11:18:25.656Z,19.07
2023-05-06T11:21:12.834Z,18.98
2023-05-06T11:23:42.742Z,18.76
2023-05-06T11:26:11.133Z,18.72
2023-05-06T11:28:39.085Z,18.67
2023-05-06T11:31:06.272Z,18.60
2023-05-06T11:33:36.772Z,18.59
2023-05-06T11:36:07.530Z,18.48
2023-05-06T11:38:42.371Z,18.45
2023-05-06T11:41:08.925Z,18.43
2023-05-06T11:43:35.527Z,18.36
2023-05-06T11:46:02.492Z,18.32
2023-05-06T11:48:29.144Z,18.19
2023-05-06T11:50:55.852Z,18.13
2023-05-06T11:53:24.382Z,18.12
2023-05-06T11:55:54.387Z,18.11
2023-05-06T11:58:26.854Z,18.13
2023-05-06T12:00:55.832Z,18.14
2023-05-06T12:03:24.069Z,18.23
2023-05-06T12:05:52.189Z,18.25
2023-05-06T12:08:32.670Z,18.24
2023-05-06T12:11:07.035Z,18.19
2023-05-06T12:13:37.855Z,18.19
2023-05-06T12:16:06.939Z,18.24
2023-05-06T12:18:33.924Z,18.22
2023-05-06T12:21:04.204Z,18.18
2023-05-06T12:23:31.133Z,18.03
2023-05-06T12:26:06.113Z,18.07
2023-05-06T12:28:35.446Z,18.01
2023-05-06T12:31:18.274Z,17.95
2023-05-06T12:33:46.490Z,18.04
2023-05-06T12:36:13.216Z,18.56
2023-05-06T12:38:50.610Z,18.94
2023-05-06T12:41:17.223Z,18.95
2023-05-06T12:43:43.784Z,18.96
2023-05-06T12:46:10.787Z,19.08
2023-05-06T12:48:37.534Z,18.85
2023-05-06T12:51:22.706Z,18.92
2023-05-06T12:53:49.260Z,19.08
2023-05-06T12:56:15.837Z,18.92
2023-05-06T12:58:42.390Z,18.87
2023-05-06T13:01:08.976Z,18.87
2023-05-06T13:03:41.084Z,19.11
2023-05-06T13:06:07.900Z,19.26
2023-05-06T13:08:34.481Z,19.25
2023-05-06T13:11:02.592Z,19.22
2023-05-06T13:13:29.331Z,19.18
2023-05-06T13:15:56.437Z,19.22
2023-05-06T13:18:23.082Z,19.45
2023-05-06T13:20:51.856Z,19.54
2023-05-06T13:23:19.451Z,19.60
2023-05-06T13:26:02.935Z,19.84
2023-05-06T13:28:32.452Z,20.11
2023-05-06T13:30:59.044Z,19.97
2023-05-06T13:33:25.613Z,19.97
2023-05-06T13:35:52.255Z,19.84
2023-05-06T13:38:18.913Z,19.59
2023-05-06T13:40:48.208Z,19.49
2023-05-06T13:43:15.738Z,19.42
2023-05-06T13:45:43.867Z,19.38
2023-05-06T13:48:11.010Z,19.20
2023-05-06T13:50:37.628Z,19.14
2023-05-06T13:53:04.473Z,19.01
2023-05-06T13:55:31.315Z,18.92
2023-05-06T13:57:57.874Z,18.92
2023-05-06T14:00:24.521Z,18.98
2023-05-06T14:02:51.071Z,19.03
2023-05-06T14:05:17.851Z,18.91
2023-05-06T14:07:44.476Z,18.90
2023-05-06T14:10:11.974Z,18.93
2023-05-06T14:12:38.726Z,18.85
2023-05-06T14:15:09.713Z,18.83
2023-05-06T14:17:36.601Z,18.79
2023-05-06T14:20:05.336Z,18.80
2023-05-06T14:22:32.936Z,18.72
2023-05-06T14:24:59.498Z,18.65
2023-05-06T14:27:26.337Z,18.55
2023-05-06T14:29:53.022Z,18.58
2023-05-06T14:32:19.568Z,18.61
2023-05-06T14:34:46.170Z,18.74
2023-05-06T14:37:12.680Z,19.15
2023-05-06T14:39:39.207Z,19.29
2023-05-06T14:42:05.775Z,19.45
2023-05-06T14:44:32.364Z,19.30
2023-05-06T14:46:58.964Z,19.29
2023-05-06T14:49:25.533Z,19.37
2023-05-06T14:51:52.105Z,19.58
2023-05-06T14:54:18.680Z,19.42
2023-05-06T14:56:49.533Z,19.37
2023-05-06T14:59:17.903Z,19.34
2023-05-06T15:01:44.521Z,19.16
2023-05-06T15:04:11.239Z,18.97
2023-05-06T15:06:37.982Z,18.93
2023-05-06T15:09:05.032Z,18.79
2023-05-06T15:11:32.243Z,18.73
2023-05-06T15:13:58.756Z,18.70
2023-05-06T15:16:25.382Z,18.73
2023-05-06T15:18:51.995Z,18.76
2023-05-06T15:21:18.674Z,18.77
2023-05-06T15:23:49.963Z,18.73
2023-05-06T15:26:16.567Z,18.64
2023-05-06T15:28:43.140Z,18.64
2023-05-06T15:31:09.803Z,18.54
2023-05-06T15:33:36.448Z,18.43
2023-05-06T15:36:03.009Z,18.35
2023-05-06T15:38:56.597Z,18.29
2023-05-06T15:41:26.784Z,18.29
2023-05-06T15:43:58.373Z,18.27
2023-05-06T15:46:25.979Z,18.23
2023-05-06T15:49:09.053Z,18.25
2023-05-06T15:51:39.015Z,18.20
2023-05-06T15:54:06.360Z,18.23
2023-05-06T15:56:39.440Z,18.36
2023-05-06T15:59:08.367Z,18.38
2023-05-06T16:02:04.763Z,18.39
2023-05-06T16:04:22.190Z,18.31
2023-05-06T16:06:49.373Z,18.31
2023-05-06T16:09:16.070Z,18.36
2023-05-06T16:11:42.631Z,18.36
2023-05-06T16:14:09.219Z,18.37
2023-05-06T16:16:36.032Z,18.29
2023-05-06T16:19:02.703Z,18.36
2023-05-06T16:21:29.247Z,18.31
2023-05-06T16:23:56.012Z,18.30
2023-05-06T16:26:22.804Z,18.27
2023-05-06T16:28:49.369Z,18.25
2023-05-06T16:31:16.123Z,18.25
2023-05-06T16:33:43.018Z,18.24
2023-05-06T16:36:09.843Z,18.25
2023-05-06T16:38:36.689Z,18.22
2023-05-06T16:41:03.361Z,18.17
2023-05-06T16:43:29.986Z,18.16
2023-05-06T16:45:56.530Z,18.17
2023-05-06T16:48:23.235Z,18.15
2023-05-06T16:50:49.860Z,18.16
2023-05-06T16:53:17.457Z,18.09
2023-05-06T16:55:49.119Z,17.99
2023-05-06T16:58:15.925Z,17.99
2023-05-06T17:00:42.614Z,18.06
2023-05-06T17:03:09.466Z,17.87
2023-05-06T17:05:36.493Z,17.76
2023-05-06T17:08:05.842Z,17.63
2023-05-06T17:10:32.496Z,17.47
2023-05-06T17:12:59.146Z,17.30
2023-05-06T17:15:26.014Z,17.27
2023-05-06T17:17:52.861Z,17.11
2023-05-06T17:20:22.992Z,17.06
2023-05-06T17:22:49.848Z,16.98
2023-05-06T17:25:16.599Z,16.93
2023-05-06T17:27:43.271Z,16.92
2023-05-06T17:30:10.167Z,16.89
2023-05-06T17:32:37.547Z,16.82
2023-05-06T17:35:04.740Z,16.78
2023-05-06T17:37:31.547Z,16.73
2023-05-06T17:39:58.256Z,16.68
2023-05-06T17:42:25.333Z,16.59
2023-05-06T17:44:51.923Z,16.42
2023-05-06T17:47:21.001Z,16.15
2023-05-06T17:49:47.903Z,15.95
2023-05-06T17:52:14.857Z,15.87
2023-05-06T17:54:41.478Z,15.81
2023-05-06T17:57:07.983Z,15.76
2023-05-06T17:59:34.543Z,15.67
2023-05-06T18:02:01.206Z,15.61
2023-05-06T18:04:27.810Z,15.65
2023-05-06T18:06:54.311Z,15.61
2023-05-06T18:09:21.000Z,15.53
2023-05-06T18:11:47.600Z,15.48
2023-05-06T18:14:14.851Z,15.42
2023-05-06T18:16:41.968Z,15.35
2023-05-06T18:19:08.653Z,15.30
2023-05-06T18:21:36.033Z,15.18
2023-05-06T18:24:15.489Z,15.07
2023-05-06T18:26:44.549Z,14.96
2023-05-06T18:29:15.281Z,14.89
2023-05-06T18:31:42.322Z,14.77
2023-05-06T18:34:09.017Z,14.70
2023-05-06T18:36:36.534Z,14.64
2023-05-06T18:39:04.752Z,14.57
2023-05-06T18:41:31.534Z,14.45
2023-05-06T18:43:58.079Z,14.38
2023-05-06T18:46:26.994Z,14.35
2023-05-06T18:48:53.788Z,14.33
2023-05-06T18:51:21.442Z,14.40
2023-05-06T18:53:47.998Z,14.33
2023-05-06T18:56:14.604Z,14.30
2023-05-06T18:58:41.160Z,14.28
2023-05-06T19:01:09.867Z,14.24
2023-05-06T19:03:37.504Z,14.06
2023-05-06T19:06:07.655Z,14.03
2023-05-06T19:08:34.191Z,14.02
2023-05-06T19:11:02.119Z,13.95
2023-05-06T19:13:29.354Z,13.85
2023-05-06T19:15:57.137Z,13.82
2023-05-06T19:18:23.757Z,13.78
2023-05-06T19:20:50.518Z,13.79
2023-05-06T19:23:17.084Z,13.78
2023-05-06T19:25:43.614Z,13.82
2023-05-06T19:28:10.283Z,13.80
2023-05-06T19:30:36.909Z,13.75
2023-05-06T19:33:04.566Z,13.76
2023-05-06T19:35:31.240Z,13.73
2023-05-06T19:37:58.217Z,13.65
2023-05-06T19:40:24.888Z,13.68
2023-05-06T19:42:51.482Z,13.65
2023-05-06T19:45:19.056Z,13.62
2023-05-06T19:47:46.207Z,13.56
2023-05-06T19:50:13.250Z,13.61
2023-05-06T19:52:40.576Z,13.63
2023-05-06T19:55:07.537Z,13.63
2023-05-06T19:57:34.194Z,13.60
2023-05-06T20:00:05.228Z,13.61
2023-05-06T20:02:32.849Z,13.64
2023-05-06T20:05:00.519Z,13.66
2023-05-06T20:07:27.623Z,13.66
2023-05-06T20:09:55.376Z,13.65
2023-05-06T20:12:28.343Z,13.66
2023-05-06T20:14:56.095Z,13.62
2023-05-06T20:17:23.783Z,13.63
2023-05-06T20:19:50.693Z,13.64
2023-05-06T20:22:17.293Z,13.61
2023-05-06T20:24:45.058Z,13.62
2023-05-06T20:27:11.662Z,13.59
2023-05-06T20:29:38.208Z,13.58
2023-05-06T20:32:05.158Z,13.61
2023-05-06T20:34:32.017Z,13.60
2023-05-06T20:36:59.841Z,13.58
2023-05-06T20:39:26.476Z,13.56
2023-05-06T20:41:52.986Z,13.61
2023-05-06T20:44:19.589Z,13.59
2023-05-06T20:46:46.187Z,13.59
2023-05-06T20:49:12.938Z,13.58
2023-05-06T20:51:39.536Z,13.57
2023-05-06T20:54:06.155Z,13.58
2023-05-06T20:56:32.709Z,13.58
2023-05-06T20:58:59.396Z,13.56
2023-05-06T21:01:27.190Z,13.55
2023-05-06T21:03:53.990Z,13.56
2023-05-06T21:06:20.642Z,13.57
2023-05-06T21:08:47.208Z,13.56
2023-05-06T21:11:14.042Z,13.53
2023-05-06T21:13:41.810Z,13.52
2023-05-06T21:16:08.342Z,13.52
2023-05-06T21:18:35.145Z,13.51
2023-05-06T21:21:01.811Z,13.51
2023-05-06T21:23:28.347Z,13.47
2023-05-06T21:25:54.927Z,13.52
2023-05-06T21:28:21.467Z,13.50
2023-05-06T21:30:48.146Z,13.48
2023-05-06T21:33:14.783Z,13.45
2023-05-06T21:35:41.382Z,13.49
2023-05-06T21:38:07.957Z,13.47
2023-05-06T21:40:34.504Z,13.48
2023-05-06T21:43:01.035Z,13.45
2023-05-06T21:45:27.674Z,13.41
2023-05-06T21:47:54.273Z,13.42
2023-05-06T21:50:20.966Z,13.39
2023-05-06T21:52:47.598Z,13.41
2023-05-06T21:55:14.288Z,13.39
2023-05-06T21:57:40.802Z,13.35
2023-05-06T22:00:12.168Z,13.32
2023-05-06T22:02:40.170Z,13.32
2023-05-06T22:05:08.131Z,13.26
2023-05-06T22:07:35.842Z,13.26
2023-05-06T22:10:03.010Z,13.24
2023-05-06T22:12:30.181Z,13.22
2023-05-06T22:14:56.853Z,13.24
2023-05-06T22:17:24.135Z,13.21
2023-05-06T22:19:51.565Z,13.19
2023-05-06T22:22:18.743Z,13.17
2023-05-06T22:24:45.400Z,13.11
2023-05-06T22:27:11.925Z,13.11
2023-05-06T22:29:38.533Z,13.05
2023-05-06T22:32:06.002Z,13.11
2023-05-06T22:34:32.871Z,13.13
2023-05-06T22:37:00.832Z,13.15
2023-05-06T22:39:27.798Z,13.13
2023-05-06T22:41:54.328Z,13.19
2023-05-06T22:44:21.331Z,13.19
2023-05-06T22:46:48.122Z,13.23
2023-05-06T22:49:15.976Z,13.25
2023-05-06T22:51:42.781Z,13.23
2023-05-06T22:54:09.511Z,13.21
2023-05-06T22:56:36.159Z,13.18
2023-05-06T22:59:02.853Z,13.21
2023-05-06T23:01:32.773Z,13.21
2023-05-06T23:03:59.689Z,13.19
2023-05-06T23:06:28.009Z,13.19
2023-05-06T23:08:54.524Z,13.20
2023-05-06T23:11:21.257Z,13.19
2023-05-06T23:13:47.970Z,13.19
2023-05-06T23:16:15.404Z,13.18
2023-05-06T23:18:42.330Z,13.15
2023-05-06T23:21:09.263Z,13.16
2023-05-06T23:23:35.860Z,13.15
2023-05-06T23:26:02.452Z,13.17
2023-05-06T23:28:29.412Z,13.15
2023-05-06T23:30:56.012Z,13.14
2023-05-06T23:33:22.813Z,13.15
2023-05-06T23:35:49.362Z,13.11
2023-05-06T23:38:15.929Z,13.13
2023-05-06T23:40:42.728Z,13.13
2023-05-06T23:43:11.323Z,13.10
2023-05-06T23:45:38.236Z,13.12
2023-05-06T23:48:05.411Z,13.13
2023-05-06T23:50:31.939Z,13.06
2023-05-06T23:52:58.504Z,13.09
2023-05-06T23:55:26.403Z,13.07
2023-05-06T23:57:53.167Z,13.06
